Main page
METAR-TAF:

METAR-TAF

Airports :

Angads Airport

Oujda, Morocco

latitude: 34-47N, longitude: 001-56W, elevation: 468 m

Current weather observation

The report was made 38 minutes ago, at 20:30 UTC
Wind 1 kt from variable directions
Temperature 12°C
Humidity 82%
Pressure 1012 hPa
Visibility 10 km or more
Few clouds at a height of 2600 ft
Broken clouds at a height of 10000 ft

METAR: GMFO 012030Z VRB01KT 9999 FEW026 BKN100 12/09 Q1012 NOSIG

Time: 22:08 (21:08 UTC)

Forecast

The report was made 4 hours and 8 minutes ago, at 17:00 UTC
Forecast valid from 01 at 18 UTC to 02 at 24 UTC
Wind 6 kt from the North/Northwest
Visibility 10 km or more
Few clouds at a height of 2600 ft
Broken clouds at a height of 10000 ft
Temporary
from 02 at 04 UTC to 02 at 10 UTC
Visibility: 8000 m
Broken clouds at a height of 2000 ft
rain showers

TAF: GMFO 011700Z 0118/0224 34006KT 9999 FEW026 BKN100 TEMPO 0204/0210 8000 SHRA BKN020

Weather observations and forecasts of more than 4000 airports (METAR and TAF reports).

The available stations are represented by yellow and red dots on the map.

Hover mouse over dot to see the name of the station.

Then click to see weather observations and forecasts.

To change the map : click on the green buttons with a black cross to zoom in, on the green button with a dash to zoom out, or on the green arrows for adjacent maps.


METAR-TAF: